PMDY METAR and TAF weather

Enter ICAO airport designator
Station Type Date Time Source
PMDY METAR 2020/01/21 08:56 UTC NOAA

PMDY 210856Z AUTO 32007KT 10SM FEW035 OVC110 19/14 A3008 RMK AO2 SLP185 T01940139 51015


Station Type Date Time Source
PMDY Decoded METAR 2020/01/21 08:56 UTC NOAA

Sand Island, Henderson Field Airport, HI, United States (PMDY) 28-13N 177-22W 6M
Jan 21, 2020 - 03:56 AM EST / 2020.01.21 0856 UTC
Wind: from the NW (320 degrees) at 8 MPH (7 KT):0
Visibility: 10 mile(s):0
Sky conditions: overcast
Temperature: 66.9 F (19.4 C)
Dew Point: 57.0 F (13.9 C)
Relative Humidity: 70%
Pressure (altimeter): 30.08 in. Hg (1018 hPa)
Pressure tendency: 0.04 inches (1.5 hPa) higher than three hours ago
ob: PMDY 210856Z AUTO 32007KT 10SM FEW035 OVC110 19/14 A3008 RMK AO2 SLP185 T01940139 51015
cycle: 9

Station Type Date Time Source
PMDY TAF 2020/01/21 06:51 UTC NOAA

TAF PMDY 210548Z 2106/2206 31014G22KT P6SM BKN035 OVC110
FM210800 33006KT P6SM FEW020 SCT030 BKN050
FM220500 20006KT P6SM SCT025 BKN050

Example: see airport list